Time;durP1;ratioP1;P1;durP2;ratioP2;P2;SDS_P1;SDS_P2;PMS_P1;PMS_P2;Temp;Humidity;BMP_temperature;BMP_pressure;BME280_temperature;BME280_humidity;BME280_pressure;Samples;Min_cycle;Max_cycle;Signal;HPM_P1;HPM_P2
2023/01/26 00:00:07;;;;;;;33.63;16.52;;;1.50;99.90;;;;;;5052531;28;20037;-71
2023/01/26 00:02:32;;;;;;;35.78;16.38;;;1.50;99.90;;;;;;5051783;28;20052;-71
2023/01/26 00:04:58;;;;;;;30.83;15.10;;;1.40;99.90;;;;;;5052232;28;20041;-71
2023/01/26 00:07:23;;;;;;;33.35;15.90;;;1.40;99.90;;;;;;5051863;28;20089;-71
2023/01/26 00:09:49;;;;;;;32.00;15.23;;;1.40;99.90;;;;;;5052239;28;20496;-71
2023/01/26 00:12:14;;;;;;;29.80;14.07;;;1.60;99.90;;;;;;5052217;28;20044;-71
2023/01/26 00:14:49;;;;;;;30.15;14.10;;;1.60;99.90;;;;;;5034675;28;20041;-71
2023/01/26 00:17:24;;;;;;;30.00;14.15;;;1.50;99.90;;;;;;5034289;28;20316;-71
2023/01/26 00:19:51;;;;;;;29.35;13.82;;;1.60;99.90;;;;;;5051811;28;20045;-71
2023/01/26 00:22:16;;;;;;;31.85;14.55;;;1.60;99.90;;;;;;5051623;28;20045;-72
2023/01/26 00:24:42;;;;;;;32.28;14.95;;;1.50;99.90;;;;;;5052187;28;20130;-71
2023/01/26 00:27:08;;;;;;;31.90;14.43;;;1.50;99.90;;;;;;5033961;28;20036;-71
2023/01/26 00:29:33;;;;;;;29.63;13.82;;;1.40;99.90;;;;;;5052142;28;20079;-71
2023/01/26 00:31:59;;;;;;;30.42;13.75;;;1.50;99.90;;;;;;5051661;28;20099;-71
2023/01/26 00:34:24;;;;;;;26.88;13.63;;;1.40;99.90;;;;;;5051873;28;20106;-71
2023/01/26 00:36:50;;;;;;;26.40;13.48;;;1.30;99.90;;;;;;5051769;28;20492;-71
2023/01/26 00:39:15;;;;;;;29.17;13.75;;;1.50;99.90;;;;;;5034094;28;20545;-71
2023/01/26 00:44:25;;;;;;;27.33;12.82;;;1.50;99.90;;;;;;5051907;28;20047;-71
2023/01/26 00:46:50;;;;;;;25.00;12.57;;;1.30;99.90;;;;;;5051770;28;20124;-71
2023/01/26 00:49:16;;;;;;;22.10;11.25;;;1.40;99.90;;;;;;5017268;28;20549;-71
2023/01/26 00:51:41;;;;;;;24.15;12.05;;;1.50;99.90;;;;;;5051501;28;20041;-71
2023/01/26 00:54:07;;;;;;;31.23;13.63;;;1.50;99.90;;;;;;5051968;28;20045;-71
2023/01/26 00:56:32;;;;;;;26.38;13.27;;;1.40;99.90;;;;;;5051758;28;20040;-71
2023/01/26 00:58:58;;;;;;;29.00;14.32;;;1.20;99.90;;;;;;5051642;28;20174;-71
2023/01/26 01:01:24;;;;;;;27.35;12.48;;;1.30;99.90;;;;;;5051199;28;20496;-71
2023/01/26 01:03:50;;;;;;;24.52;12.30;;;1.20;99.90;;;;;;5051450;28;20064;-71
2023/01/26 01:06:16;;;;;;;29.30;13.73;;;1.20;99.90;;;;;;5051888;28;20048;-71
2023/01/26 01:08:42;;;;;;;26.23;13.25;;;1.30;99.90;;;;;;5051631;28;20488;-72
2023/01/26 01:11:10;;;;;;;29.40;12.82;;;1.30;99.90;;;;;;5051278;28;20076;-71
2023/01/26 01:13:35;;;;;;;30.27;14.27;;;1.20;99.90;;;;;;5051602;28;20044;-71
2023/01/26 01:16:06;;;;;;;25.63;13.15;;;1.40;99.90;;;;;;5051370;28;20442;-71
2023/01/26 01:18:31;;;;;;;27.42;13.15;;;1.40;99.90;;;;;;5054873;28;20064;-72
2023/01/26 01:20:57;;;;;;;30.52;13.93;;;1.40;99.90;;;;;;5055357;28;20044;-71
2023/01/26 01:23:23;;;;;;;27.67;12.93;;;1.20;99.90;;;;;;5055883;28;20044;-72
2023/01/26 01:25:56;;;;;;;26.35;13.00;;;1.20;99.90;;;;;;5055361;28;20033;-72
2023/01/26 01:28:22;;;;;;;;;;;1.20;99.90;;;;;;5037884;28;20049;-71
2023/01/26 01:30:47;;;;;;;29.35;12.68;;;1.40;99.90;;;;;;5055064;28;19923;-72
2023/01/26 01:33:13;;;;;;;26.38;11.77;;;1.40;99.90;;;;;;5037545;28;20103;-72
2023/01/26 01:35:38;;;;;;;27.80;12.90;;;1.40;99.90;;;;;;5055594;28;20090;-72
2023/01/26 01:38:04;;;;;;;26.60;13.07;;;1.40;99.90;;;;;;5055162;28;20052;-71
2023/01/26 01:40:29;;;;;;;29.42;13.07;;;1.40;99.90;;;;;;5055456;28;20064;-72
2023/01/26 01:42:55;;;;;;;27.27;12.60;;;1.20;99.90;;;;;;5055052;28;20037;-72
2023/01/26 01:45:38;;;;;;;28.08;12.80;;;1.30;99.90;;;;;;5055163;28;20033;-71
2023/01/26 01:48:10;;;;;;;28.42;11.98;;;1.40;99.90;;;;;;5037093;28;20037;-72
2023/01/26 01:50:38;;;;;;;26.63;11.95;;;1.40;99.90;;;;;;5036962;28;20094;-72
2023/01/26 01:53:05;;;;;;;30.35;12.50;;;1.30;99.90;;;;;;5054821;28;20504;-72
2023/01/26 01:55:31;;;;;;;28.17;14.38;;;1.40;99.90;;;;;;5037249;28;20051;-72
2023/01/26 01:58:00;;;;;;;29.48;13.63;;;1.20;99.90;;;;;;5054725;28;20037;-72
2023/01/26 02:00:26;;;;;;;28.30;14.20;;;1.30;99.90;;;;;;5020501;28;20580;-72
2023/01/26 02:03:09;;;;;;;28.23;12.77;;;1.40;99.90;;;;;;5054593;28;20037;-72
2023/01/26 02:05:39;;;;;;;31.25;13.77;;;1.40;99.90;;;;;;5036972;28;20079;-72
2023/01/26 02:08:05;;;;;;;33.38;13.50;;;1.30;99.90;;;;;;5054676;28;20041;-72
2023/01/26 02:10:31;;;;;;;27.00;13.75;;;1.20;99.90;;;;;;5054605;28;20113;-72
2023/01/26 02:12:59;;;;;;;29.83;13.05;;;1.30;99.90;;;;;;5054589;28;20500;-72
2023/01/26 02:15:25;;;;;;;24.20;12.48;;;1.40;99.90;;;;;;5055357;28;20045;-72
2023/01/26 02:17:52;;;;;;;26.00;12.57;;;1.20;99.90;;;;;;5054991;28;20037;-72
2023/01/26 02:20:27;;;;;;;26.13;12.55;;;1.20;99.90;;;;;;5054563;28;20037;-72
2023/01/26 02:23:30;;;;;;;25.60;12.02;;;1.30;99.90;;;;;;5054117;28;20471;-72
2023/01/26 02:26:03;;;;;;;22.17;11.77;;;1.30;99.90;;;;;;5036310;28;20046;-72
2023/01/26 02:28:29;;;;;;;29.27;11.60;;;1.40;99.90;;;;;;5053716;28;20045;-72
2023/01/26 02:30:55;;;;;;;21.58;10.73;;;1.20;99.90;;;;;;5054057;28;20190;-72
2023/01/26 02:33:24;;;;;;;27.60;11.23;;;1.30;99.90;;;;;;5054219;28;20036;-72
2023/01/26 02:35:50;;;;;;;24.20;11.23;;;1.50;99.90;;;;;;5053965;28;20045;-72
2023/01/26 02:38:18;;;;;;;23.35;11.13;;;1.30;99.90;;;;;;5054058;28;20044;-72
2023/01/26 02:40:55;;;;;;;25.50;12.05;;;1.50;99.90;;;;;;5036035;28;20512;-72
2023/01/26 02:43:24;;;;;;;29.08;12.20;;;1.20;99.90;;;;;;5036037;28;20048;-72
2023/01/26 02:45:50;;;;;;;25.10;11.05;;;1.30;99.90;;;;;;5053943;28;20110;-72
2023/01/26 02:49:45;;;;;;;25.52;12.63;;;1.30;99.90;;;;;;5053758;28;20037;-72
2023/01/26 02:51:01;;;;;;;29.48;12.82;;;1.30;99.90;;;;;;5053401;28;20098;-71
2023/01/26 02:53:27;;;;;;;25.98;11.23;;;1.50;99.90;;;;;;5053918;28;20408;-72
2023/01/26 02:55:52;;;;;;;23.45;11.38;;;1.40;99.90;;;;;;5053854;28;20040;-72
2023/01/26 02:58:18;;;;;;;29.15;13.73;;;1.30;99.90;;;;;;5035755;28;20408;-72
2023/01/26 03:00:43;;;;;;;26.67;12.25;;;1.50;99.90;;;;;;5053282;28;20072;-72
2023/01/26 03:03:24;;;;;;;23.55;11.68;;;1.50;99.90;;;;;;5053889;28;20504;-72
2023/01/26 03:05:51;;;;;;;24.40;12.27;;;1.30;99.90;;;;;;5053815;28;20077;-72
2023/01/26 03:08:17;;;;;;;26.55;12.18;;;1.30;99.90;;;;;;5053476;28;20385;-72
2023/01/26 03:10:42;;;;;;;27.98;11.38;;;1.50;99.90;;;;;;5053186;28;20045;-70
2023/01/26 03:13:08;;;;;;;28.52;13.00;;;1.30;99.90;;;;;;5053396;28;20110;-70
2023/01/26 03:15:41;;;;;;;27.35;12.52;;;1.30;99.90;;;;;;5053725;28;20056;-70
2023/01/26 03:29:11;;;;;;;22.27;10.63;;;1.30;99.90;;;;;;5053198;28;20072;-70
2023/01/26 03:31:37;;;;;;;28.52;13.45;;;1.50;99.90;;;;;;5052747;28;20061;-70
2023/01/26 03:34:02;;;;;;;25.75;12.18;;;1.30;99.90;;;;;;5052832;28;20068;-70
2023/01/26 03:36:28;;;;;;;25.13;11.95;;;1.40;99.90;;;;;;5052834;28;20040;-70
2023/01/26 03:38:53;;;;;;;25.55;12.35;;;1.40;99.90;;;;;;5052944;28;20045;-70
2023/01/26 03:57:47;;;;;;;24.30;10.55;;;1.60;99.90;;;;;;5052730;28;20371;-71
2023/01/26 04:00:13;;;;;;;19.15;9.43;;;1.60;99.90;;;;;;5052604;28;20036;-70
2023/01/26 04:08:21;;;;;;;21.08;10.27;;;1.50;99.90;;;;;;5052466;28;20095;-70
2023/01/26 04:10:49;;;;;;;21.90;10.50;;;1.60;99.90;;;;;;5052138;28;20044;-71
2023/01/26 04:21:29;;;;;;;25.15;11.63;;;1.40;99.90;;;;;;5033890;28;20119;-71
2023/01/26 04:23:56;;;;;;;22.45;11.40;;;1.60;99.90;;;;;;5052080;28;20029;-71
2023/01/26 04:26:26;;;;;;;18.00;8.93;;;1.50;99.90;;;;;;5034467;28;20076;-71
2023/01/26 04:28:52;;;;;;;21.25;10.63;;;1.80;99.90;;;;;;5033909;28;20507;-71
2023/01/26 04:31:17;;;;;;;22.50;9.95;;;1.80;99.90;;;;;;5051802;28;20045;-71
2023/01/26 04:33:43;;;;;;;23.23;11.38;;;1.80;99.90;;;;;;5051987;28;20048;-71
2023/01/26 04:36:09;;;;;;;18.90;10.15;;;1.70;99.90;;;;;;5051818;28;20049;-71
2023/01/26 04:38:35;;;;;;;21.95;11.45;;;1.60;99.90;;;;;;5033929;28;20044;-71
2023/01/26 04:41:01;;;;;;;25.33;11.30;;;1.70;99.90;;;;;;5033749;28;20440;-71
2023/01/26 04:43:26;;;;;;;22.50;10.43;;;1.70;99.90;;;;;;5051827;28;20488;-71
2023/01/26 04:46:00;;;;;;;20.00;10.18;;;1.60;99.90;;;;;;5051684;28;20041;-70
2023/01/26 04:48:27;;;;;;;23.02;11.15;;;1.70;99.90;;;;;;5051744;28;20074;-71
2023/01/26 04:50:54;;;;;;;20.67;10.15;;;1.60;99.90;;;;;;5051313;28;20546;-71
2023/01/26 04:53:19;;;;;;;23.27;10.95;;;1.80;99.90;;;;;;5051271;28;20136;-72
2023/01/26 04:55:45;;;;;;;18.75;9.40;;;1.80;99.90;;;;;;5051808;28;20128;-71
2023/01/26 04:58:11;;;;;;;24.35;11.93;;;1.70;99.90;;;;;;5051796;28;20049;-71
2023/01/26 05:00:36;;;;;;;22.73;11.48;;;1.70;99.90;;;;;;5051390;28;20123;-70
2023/01/26 05:03:02;;;;;;;21.27;11.43;;;1.80;99.90;;;;;;5033548;28;20459;-71
2023/01/26 05:05:27;;;;;;;19.38;10.13;;;1.70;99.90;;;;;;5033737;28;20393;-71
2023/01/26 05:07:53;;;;;;;27.00;11.75;;;1.70;99.90;;;;;;5051414;28;20041;-71
2023/01/26 05:10:19;;;;;;;21.25;10.90;;;1.70;99.90;;;;;;5051382;28;20053;-71
2023/01/26 05:12:44;;;;;;;23.42;11.48;;;1.80;99.90;;;;;;5051251;28;20125;-70
2023/01/26 05:15:11;;;;;;;24.65;12.00;;;1.70;99.90;;;;;;5033709;28;20052;-71
2023/01/26 05:17:36;;;;;;;25.50;12.27;;;1.70;99.90;;;;;;5051409;28;20049;-71
2023/01/26 05:20:03;;;;;;;25.30;11.35;;;1.80;99.90;;;;;;5033485;28;20045;-70
2023/01/26 05:22:28;;;;;;;23.50;10.85;;;1.90;99.90;;;;;;5050869;28;20037;-71
2023/01/26 05:24:54;;;;;;;28.20;12.23;;;1.90;99.90;;;;;;5051417;28;20033;-71
2023/01/26 05:27:20;;;;;;;26.65;12.18;;;1.70;99.90;;;;;;5080698;23;20098;-69
2023/01/26 05:29:45;;;;;;;26.42;12.10;;;1.80;99.90;;;;;;5071103;28;20040;-69
2023/01/26 05:32:11;;;;;;;28.15;13.60;;;1.90;99.90;;;;;;5070406;28;20113;-68
2023/01/26 05:34:37;;;;;;;24.40;12.25;;;1.90;99.90;;;;;;5069829;28;20036;-68
2023/01/26 05:37:03;;;;;;;26.10;12.45;;;1.70;99.90;;;;;;5080088;28;20090;-68
2023/01/26 05:39:28;;;;;;;25.40;12.35;;;1.80;99.90;;;;;;5049475;28;20070;-69
2023/01/26 05:41:56;;;;;;;25.67;11.52;;;1.80;99.90;;;;;;5048899;28;20106;-68
2023/01/26 05:44:23;;;;;;;23.63;11.55;;;1.80;99.90;;;;;;5050616;28;20051;-68
2023/01/26 05:46:49;;;;;;;27.10;12.10;;;2.00;99.90;;;;;;5050841;28;20044;-68
2023/01/26 05:49:15;;;;;;;28.23;13.02;;;2.00;99.90;;;;;;5050594;28;20041;-68
2023/01/26 05:51:41;;;;;;;29.13;14.70;;;2.00;99.90;;;;;;5049220;28;20049;-68
2023/01/26 05:54:06;;;;;;;28.83;11.63;;;1.90;99.90;;;;;;5050853;28;20036;-68
2023/01/26 05:56:32;;;;;;;28.90;13.93;;;2.00;99.90;;;;;;5049107;28;20083;-69
2023/01/26 05:58:57;;;;;;;31.23;14.27;;;1.80;99.90;;;;;;5049210;28;20046;-68
2023/01/26 06:01:23;;;;;;;28.60;13.50;;;2.00;99.90;;;;;;5049053;28;20468;-68
2023/01/26 06:03:48;;;;;;;32.78;13.65;;;2.00;99.90;;;;;;5049884;28;20531;-68
2023/01/26 06:06:14;;;;;;;28.52;13.48;;;2.10;99.90;;;;;;5054142;28;20436;-68
2023/01/26 06:08:39;;;;;;;30.48;13.57;;;1.90;99.90;;;;;;5052813;28;20067;-68
2023/01/26 06:11:05;;;;;;;30.30;13.45;;;2.20;99.90;;;;;;5052506;28;20037;-69
2023/01/26 06:13:30;;;;;;;25.95;12.70;;;2.00;99.90;;;;;;5054101;28;20496;-68
2023/01/26 06:16:00;;;;;;;29.90;13.65;;;2.10;99.90;;;;;;5052722;28;20056;-68
2023/01/26 06:18:25;;;;;;;30.80;14.13;;;2.20;99.90;;;;;;5053908;28;20451;-68
2023/01/26 06:20:51;;;;;;;28.65;13.18;;;2.00;99.90;;;;;;5053576;28;20080;-68
2023/01/26 06:23:16;;;;;;;30.20;12.73;;;2.00;99.90;;;;;;5053769;28;20048;-69
2023/01/26 06:25:42;;;;;;;30.33;12.93;;;2.30;99.90;;;;;;5053951;28;20045;-69
2023/01/26 06:28:07;;;;;;;27.20;13.98;;;2.10;99.90;;;;;;5052361;28;20043;-68
2023/01/26 06:30:33;;;;;;;29.40;15.82;;;2.10;99.90;;;;;;5053838;28;20044;-68
2023/01/26 06:32:59;;;;;;;27.38;12.70;;;2.00;99.90;;;;;;5052561;28;20412;-68
2023/01/26 06:35:25;;;;;;;24.80;12.63;;;2.10;99.90;;;;;;5053770;28;20037;-68
2023/01/26 06:37:51;;;;;;;29.73;13.95;;;2.10;99.90;;;;;;5052323;28;20048;-69
2023/01/26 06:40:18;;;;;;;27.25;13.15;;;2.10;99.90;;;;;;5053697;28;20051;-69
2023/01/26 06:42:48;;;;;;;27.65;12.55;;;2.00;99.90;;;;;;5053355;28;20045;-69
2023/01/26 06:45:15;;;;;;;24.40;12.80;;;2.20;99.90;;;;;;5053588;28;20056;-68
2023/01/26 06:47:47;;;;;;;31.70;13.60;;;2.10;99.90;;;;;;5053416;28;20087;-69
2023/01/26 06:50:15;;;;;;;30.67;13.37;;;2.00;99.90;;;;;;5052381;28;20144;-68
2023/01/26 06:52:43;;;;;;;26.65;12.57;;;2.10;99.90;;;;;;5051760;28;20374;-68
2023/01/26 06:55:16;;;;;;;26.48;13.23;;;2.10;99.90;;;;;;5053463;28;20087;-69
2023/01/26 06:57:41;;;;;;;33.22;13.02;;;2.20;99.90;;;;;;5053736;28;20033;-69
2023/01/26 07:00:08;;;;;;;31.60;13.75;;;2.20;99.90;;;;;;5053190;28;20041;-69
2023/01/26 07:02:34;;;;;;;32.85;13.43;;;2.10;99.90;;;;;;5052796;28;20045;-69
2023/01/26 07:04:59;;;;;;;27.23;13.43;;;2.30;99.90;;;;;;5052067;28;20067;-69
2023/01/26 07:07:25;;;;;;;32.70;13.10;;;2.30;99.90;;;;;;5053152;28;20120;-69
2023/01/26 07:09:50;;;;;;;26.13;12.63;;;2.20;99.90;;;;;;5052031;28;20081;-69
2023/01/26 07:12:16;;;;;;;26.00;11.65;;;2.20;99.90;;;;;;5051350;28;20124;-69
2023/01/26 07:14:41;;;;;;;24.60;12.38;;;2.30;99.90;;;;;;5052663;28;20044;-69
2023/01/26 07:17:07;;;;;;;26.10;11.65;;;2.20;99.90;;;;;;5052759;28;20037;-69
2023/01/26 07:19:32;;;;;;;28.05;13.40;;;2.40;99.90;;;;;;5053036;28;20404;-69
2023/01/26 07:21:59;;;;;;;30.13;12.20;;;2.30;99.90;;;;;;5051122;28;20052;-69
2023/01/26 07:24:24;;;;;;;23.77;11.77;;;2.30;99.90;;;;;;5052795;28;20037;-68
2023/01/26 07:26:50;;;;;;;29.30;11.88;;;2.20;99.90;;;;;;5052485;28;20033;-68
2023/01/26 07:29:15;;;;;;;32.72;13.43;;;2.30;99.90;;;;;;5051260;28;20048;-69
2023/01/26 07:31:43;;;;;;;29.38;12.02;;;2.30;99.90;;;;;;5050927;28;20492;-69
2023/01/26 07:34:09;;;;;;;24.30;13.45;;;2.10;99.90;;;;;;5052672;28;20041;-68
2023/01/26 07:36:34;;;;;;;24.63;11.65;;;2.30;99.90;;;;;;5052569;28;20047;-68
2023/01/26 07:39:00;;;;;;;32.50;13.07;;;2.00;99.90;;;;;;5052551;28;20124;-68
2023/01/26 07:41:25;;;;;;;28.13;12.40;;;2.20;99.90;;;;;;5051920;28;20067;-69
2023/01/26 07:43:51;;;;;;;30.80;12.02;;;2.00;99.90;;;;;;5052285;28;20044;-69
2023/01/26 07:46:16;;;;;;;24.27;10.77;;;2.10;99.90;;;;;;5050860;28;20037;-69
2023/01/26 07:48:42;;;;;;;28.27;12.18;;;2.00;99.90;;;;;;5052342;28;20083;-69
2023/01/26 07:51:09;;;;;;;28.67;12.70;;;2.00;99.90;;;;;;5050852;28;20037;-69
2023/01/26 07:53:38;;;;;;;27.75;13.00;;;2.10;99.90;;;;;;5052189;28;20085;-68
2023/01/26 07:56:12;;;;;;;31.10;14.35;;;2.20;99.90;;;;;;5052117;28;20116;-69
2023/01/26 07:58:38;;;;;;;27.63;11.82;;;2.10;99.90;;;;;;5050647;28;20073;-68
2023/01/26 08:01:09;;;;;;;23.80;10.40;;;1.90;99.90;;;;;;5051844;28;20080;-68
2023/01/26 08:03:35;;;;;;;22.92;11.02;;;2.10;99.90;;;;;;5052182;28;20048;-69
2023/01/26 08:06:01;;;;;;;25.17;12.10;;;1.90;99.90;;;;;;5050704;28;20040;-68
2023/01/26 08:08:27;;;;;;;23.65;11.02;;;2.10;99.90;;;;;;5050609;28;20033;-69
2023/01/26 08:10:55;;;;;;;24.67;10.40;;;1.90;99.90;;;;;;5050201;28;20392;-69
2023/01/26 08:13:21;;;;;;;25.48;11.07;;;1.80;99.90;;;;;;5051700;28;20087;-69
2023/01/26 08:15:47;;;;;;;22.48;10.77;;;2.00;99.90;;;;;;5051932;28;20041;-68
2023/01/26 08:18:12;;;;;;;24.85;10.88;;;1.80;99.90;;;;;;5051765;28;20045;-71
2023/01/26 08:20:37;;;;;;;24.45;10.63;;;1.80;99.90;;;;;;5051374;28;20571;-68
2023/01/26 08:23:03;;;;;;;20.73;9.93;;;1.80;99.90;;;;;;5050472;28;20150;-68
2023/01/26 08:25:28;;;;;;;24.55;9.63;;;1.80;99.90;;;;;;5051632;28;20047;-68
2023/01/26 08:27:54;;;;;;;24.35;10.10;;;2.00;99.90;;;;;;5050673;28;20045;-67
2023/01/26 08:30:20;;;;;;;27.80;9.65;;;1.80;99.90;;;;;;5051443;28;20416;-68
2023/01/26 08:32:45;;;;;;;33.95;10.50;;;2.00;99.90;;;;;;5051328;28;20048;-68
2023/01/26 08:35:11;;;;;;;23.30;8.98;;;1.80;99.90;;;;;;5051541;28;20052;-67
2023/01/26 08:37:36;;;;;;;31.65;9.65;;;1.90;99.90;;;;;;5051378;28;20095;-68
2023/01/26 08:40:02;;;;;;;31.98;8.93;;;2.00;99.90;;;;;;5051358;28;20416;-68
2023/01/26 08:42:28;;;;;;;33.10;9.13;;;2.30;99.90;;;;;;5050857;28;20076;-68
2023/01/26 08:44:53;;;;;;;48.08;9.20;;;2.50;99.90;;;;;;5051541;28;20033;-68
2023/01/26 08:47:19;;;;;;;39.30;8.57;;;2.50;99.90;;;;;;5051209;28;20041;-67
2023/01/26 08:49:44;;;;;;;36.20;8.95;;;2.80;99.90;;;;;;5051250;28;20064;-68
2023/01/26 08:52:10;;;;;;;53.58;9.15;;;2.70;99.90;;;;;;5050954;28;20041;-68
2023/01/26 08:54:36;;;;;;;38.60;8.63;;;3.00;99.90;;;;;;5050018;28;20464;-68
2023/01/26 08:57:01;;;;;;;47.03;9.45;;;3.00;99.90;;;;;;5050983;28;20041;-68
2023/01/26 08:59:27;;;;;;;51.83;8.20;;;3.10;99.90;;;;;;5051272;28;20442;-68
2023/01/26 09:01:54;;;;;;;34.90;8.98;;;3.40;99.90;;;;;;5050969;28;20041;-68
2023/01/26 09:04:20;;;;;;;33.42;7.85;;;3.30;99.90;;;;;;5051089;28;20408;-69
2023/01/26 09:06:45;;;;;;;47.20;9.63;;;3.60;99.90;;;;;;5049471;28;20043;-70
2023/01/26 09:09:13;;;;;;;40.10;7.90;;;3.80;99.90;;;;;;5050521;28;20110;-70
2023/01/26 09:11:39;;;;;;;36.55;7.65;;;3.70;99.90;;;;;;5049206;28;20080;-70
2023/01/26 09:14:05;;;;;;;47.38;10.57;;;3.70;99.90;;;;;;5051192;28;20106;-69
2023/01/26 09:16:30;;;;;;;37.90;8.13;;;3.80;99.90;;;;;;5050991;28;20044;-69
2023/01/26 09:18:56;;;;;;;37.85;8.73;;;3.90;99.90;;;;;;5051015;28;20045;-69
2023/01/26 09:21:24;;;;;;;53.13;8.77;;;3.90;99.90;;;;;;5050556;28;20500;-70
2023/01/26 09:23:49;;;;;;;60.97;8.00;;;4.10;99.90;;;;;;5033287;28;20349;-70
2023/01/26 09:26:15;;;;;;;42.83;8.43;;;4.10;99.90;;;;;;5050753;28;20052;-70
2023/01/26 09:28:41;;;;;;;40.33;8.38;;;4.20;99.90;;;;;;5050695;28;20303;-70
2023/01/26 09:31:09;;;;;;;43.47;7.90;;;4.30;99.90;;;;;;5050646;28;20480;-69
2023/01/26 09:33:35;;;;;;;49.53;7.93;;;4.40;99.90;;;;;;5050984;28;20041;-70
2023/01/26 09:36:07;;;;;;;39.25;7.72;;;4.40;99.90;;;;;;5049695;28;20045;-70
2023/01/26 09:38:33;;;;;;;38.92;8.48;;;4.30;99.90;;;;;;5051105;28;20083;-70
2023/01/26 09:41:26;;;;;;;34.10;7.35;;;4.50;99.90;;;;;;5053465;28;20068;-70
2023/01/26 09:44:06;;;;;;;39.47;7.97;;;4.50;99.90;;;;;;5054800;28;20041;-70
2023/01/26 09:47:00;;;;;;;30.33;6.65;;;4.60;99.90;;;;;;5054724;28;20044;-70
2023/01/26 09:49:54;;;;;;;31.67;7.00;;;4.80;99.90;;;;;;5054904;28;20045;-70
2023/01/26 09:52:40;;;;;;;30.70;6.78;;;5.00;99.90;;;;;;5054418;28;20499;-71
2023/01/26 09:55:15;;;;;;;37.15;7.22;;;5.10;99.90;;;;;;5052691;28;20056;-70
2023/01/26 09:57:51;;;;;;;33.55;5.72;;;5.20;99.90;;;;;;5055032;28;20181;-70
2023/01/26 10:00:38;;;;;;;38.58;7.13;;;5.10;99.90;;;;;;5053404;28;20037;-70
2023/01/26 10:03:12;;;;;;;34.83;7.20;;;5.20;99.90;;;;;;5054454;28;20403;-70
2023/01/26 10:05:56;;;;;;;34.80;7.85;;;5.20;99.90;;;;;;5053382;28;20033;-70
2023/01/26 10:08:22;;;;;;;33.83;7.28;;;5.20;99.90;;;;;;5054505;28;20134;-70
2023/01/26 10:10:53;;;;;;;30.95;6.78;;;5.30;99.90;;;;;;5052786;28;20150;-70
2023/01/26 10:13:20;;;;;;;52.20;8.88;;;5.30;99.90;;;;;;5052905;28;20551;-70
2023/01/26 10:16:07;;;;;;;36.67;5.90;;;5.50;99.90;;;;;;5036304;28;20380;-70
2023/01/26 10:18:39;;;;;;;23.75;6.05;;;5.60;99.90;;;;;;5052770;28;20129;-70
2023/01/26 10:21:08;;;;;;;36.90;6.72;;;5.40;99.90;;;;;;5052420;28;20049;-71
2023/01/26 10:23:34;;;;;;;24.65;5.70;;;5.60;99.90;;;;;;5054113;28;20037;-70
2023/01/26 10:26:15;;;;;;;26.50;6.22;;;5.70;99.90;;;;;;5053998;28;20044;-70
2023/01/26 10:28:46;;;;;;;32.10;6.53;;;5.70;99.90;;;;;;5053621;28;20043;-70
2023/01/26 10:31:16;;;;;;;32.85;5.70;;;5.70;99.90;;;;;;5052306;28;20041;-70
2023/01/26 10:33:54;;;;;;;34.92;7.10;;;5.90;99.90;;;;;;5035950;28;20049;-70
2023/01/26 10:36:21;;;;;;;28.42;5.50;;;5.90;99.90;;;;;;5052701;28;20544;-70
2023/01/26 10:38:48;;;;;;;38.35;5.40;;;5.90;99.90;;;;;;5053620;28;20037;-70
2023/01/26 10:41:13;;;;;;;27.75;7.05;;;6.10;99.90;;;;;;5052165;28;20052;-70
2023/01/26 10:43:55;;;;;;;29.38;6.40;;;6.20;99.90;;;;;;5052348;28;20045;-70
2023/01/26 10:46:33;;;;;;;36.67;5.40;;;6.20;99.90;;;;;;5052348;28;20563;-70
2023/01/26 10:49:08;;;;;;;30.08;5.00;;;6.40;99.90;;;;;;5052315;28;20033;-70
2023/01/26 10:51:36;;;;;;;28.40;7.18;;;6.50;99.90;;;;;;5051389;28;20087;-70
2023/01/26 10:54:25;;;;;;;40.33;6.35;;;6.60;99.90;;;;;;5053570;28;20055;-70
2023/01/26 10:56:54;;;;;;;29.83;5.30;;;6.80;99.90;;;;;;5052295;28;20515;-70
2023/01/26 10:59:31;;;;;;;34.08;6.65;;;6.70;99.90;;;;;;5053346;28;20041;-70
2023/01/26 11:02:21;;;;;;;28.70;5.35;;;6.80;99.90;;;;;;5052006;28;20111;-70
2023/01/26 11:05:05;;;;;;;32.80;5.15;;;6.80;99.90;;;;;;5045835;28;20048;-70
2023/01/26 11:07:39;;;;;;;31.88;6.10;;;7.00;99.90;;;;;;5054583;28;20033;-71
2023/01/26 11:10:25;;;;;;;29.73;5.45;;;6.90;99.90;;;;;;5054871;28;20407;-70
2023/01/26 11:13:16;;;;;;;34.67;5.15;;;7.10;99.90;;;;;;5054585;28;20069;-70
2023/01/26 11:15:46;;;;;;;32.15;6.55;;;7.10;99.90;;;;;;5052973;28;20095;-71
2023/01/26 11:18:32;;;;;;;32.95;5.28;;;7.20;99.90;;;;;;5053139;28;20492;-71
2023/01/26 11:21:26;;;;;;;28.02;5.68;;;7.00;99.90;;;;;;5053598;28;20036;-71
2023/01/26 11:24:14;;;;;;;30.83;6.10;;;7.10;99.90;;;;;;5052250;28;20044;-71
2023/01/26 11:29:30;;;;;;;26.95;4.35;;;7.30;99.90;;;;;;5073351;22;20053;-75
2023/01/26 11:31:55;;;;;;;29.83;5.80;;;7.30;99.90;;;;;;5021276;28;20053;-74
2023/01/26 11:34:38;;;;;;;24.92;6.25;;;7.10;99.90;;;;;;5053210;28;20051;-74
2023/01/26 11:37:29;;;;;;;21.73;4.40;;;7.20;99.90;;;;;;5053090;28;20086;-74
2023/01/26 11:40:14;;;;;;;31.38;7.00;;;7.40;99.90;;;;;;5035124;28;20056;-74
2023/01/26 11:42:53;;;;;;;36.05;4.97;;;7.40;99.90;;;;;;5018105;28;20526;-74
2023/01/26 11:45:33;;;;;;;23.52;5.53;;;7.50;99.90;;;;;;5034911;28;20047;-74
2023/01/26 11:48:31;;;;;;;20.00;4.10;;;7.50;99.90;;;;;;5034913;28;20143;-75
2023/01/26 11:51:02;;;;;;;20.65;4.28;;;7.60;99.90;;;;;;5034576;28;20095;-74
2023/01/26 11:53:36;;;;;;;27.10;3.72;;;7.50;99.90;;;;;;5018580;28;20487;-75
2023/01/26 11:56:17;;;;;;;24.90;5.20;;;7.50;99.90;;;;;;5034858;28;20044;-75
2023/01/26 11:58:56;;;;;;;19.67;4.07;;;7.30;99.90;;;;;;5034641;28;20083;-74
2023/01/26 12:01:28;;;;;;;22.52;3.42;;;7.40;99.90;;;;;;5033444;28;20052;-74
2023/01/26 12:03:55;;;;;;;17.92;4.03;;;7.30;99.90;;;;;;5034798;28;20400;-74
2023/01/26 12:06:33;;;;;;;14.80;2.72;;;7.10;99.90;;;;;;5034985;28;20385;-75
2023/01/26 12:09:04;;;;;;;18.15;3.85;;;7.20;99.90;;;;;;5034507;28;20045;-75
2023/01/26 12:11:39;;;;;;;36.72;5.78;;;7.00;99.90;;;;;;5017730;28;20526;-74
2023/01/26 12:14:21;;;;;;;19.70;3.88;;;7.00;99.90;;;;;;5034524;28;20123;-74
2023/01/26 12:17:17;;;;;;;15.80;3.10;;;7.10;99.90;;;;;;5034754;28;20049;-74
2023/01/26 12:20:18;;;;;;;16.67;4.22;;;7.10;99.90;;;;;;4984464;28;20055;-74
2023/01/26 12:23:08;;;;;;;16.17;3.40;;;7.10;99.90;;;;;;4935496;29;20050;-75
2023/01/26 12:25:43;;;;;;;15.70;3.75;;;7.10;99.90;;;;;;5030203;28;20508;-76
2023/01/26 12:28:26;;;;;;;20.40;3.67;;;7.10;99.90;;;;;;5052274;28;20504;-74
2023/01/26 12:31:03;;;;;;;25.27;3.53;;;7.20;99.90;;;;;;5033804;28;20055;-74
2023/01/26 12:33:32;;;;;;;21.85;3.42;;;7.10;99.90;;;;;;5033990;28;20291;-74
2023/01/26 12:36:09;;;;;;;16.33;3.22;;;7.20;99.90;;;;;;5034018;28;20070;-74
2023/01/26 12:38:49;;;;;;;17.45;4.53;;;7.30;99.90;;;;;;5051917;28;20123;-74
2023/01/26 12:41:25;;;;;;;13.07;2.63;;;7.20;99.90;;;;;;5033726;28;20238;-74
2023/01/26 12:44:15;;;;;;;14.57;2.55;;;7.50;99.90;;;;;;5033966;28;20040;-74
2023/01/26 12:46:46;;;;;;;13.98;3.22;;;7.40;99.90;;;;;;5033978;28;20032;-74
2023/01/26 12:49:50;;;;;;;18.17;2.40;;;7.50;99.90;;;;;;5033872;28;20041;-74
2023/01/26 12:52:39;;;;;;;20.40;4.15;;;7.50;99.90;;;;;;5033610;28;20099;-74
2023/01/26 12:55:16;;;;;;;12.23;3.00;;;7.50;99.90;;;;;;5034087;28;20128;-74
2023/01/26 12:57:53;;;;;;;14.30;2.70;;;7.50;99.90;;;;;;5033606;28;20041;-74
2023/01/26 13:00:31;;;;;;;18.77;4.07;;;7.60;99.90;;;;;;5033754;28;20048;-73
2023/01/26 13:03:24;;;;;;;20.75;3.10;;;7.40;99.90;;;;;;5033335;28;20633;-74
2023/01/26 13:06:01;;;;;;;10.82;2.55;;;7.50;99.90;;;;;;5051531;28;20116;-73
2023/01/26 13:08:30;;;;;;;15.52;3.60;;;7.40;99.90;;;;;;5051398;28;20048;-73
2023/01/26 13:10:57;;;;;;;10.55;2.67;;;7.30;99.90;;;;;;5033943;28;20041;-73
2023/01/26 13:13:27;;;;;;;16.90;2.95;;;7.40;99.90;;;;;;5033535;28;20047;-73
2023/01/26 13:16:16;;;;;;;10.32;2.45;;;7.40;99.90;;;;;;5033870;28;20047;-73
2023/01/26 13:18:58;;;;;;;10.43;2.65;;;7.40;99.90;;;;;;5036367;28;20049;-73
2023/01/26 13:21:39;;;;;;;14.85;3.28;;;7.50;99.90;;;;;;5051615;28;20048;-73
2023/01/26 13:24:16;;;;;;;14.80;2.80;;;7.40;99.90;;;;;;5052136;28;20040;-73
2023/01/26 13:26:50;;;;;;;18.67;2.58;;;7.50;99.90;;;;;;5034389;28;20036;-73
2023/01/26 13:29:26;;;;;;;14.70;2.50;;;7.60;99.90;;;;;;5034037;28;20041;-73
2023/01/26 13:31:53;;;;;;;20.70;3.67;;;7.60;99.90;;;;;;5033237;28;20049;-73
2023/01/26 13:34:25;;;;;;;13.63;2.70;;;7.60;99.90;;;;;;5051511;28;20048;-74
2023/01/26 13:36:53;;;;;;;13.48;2.75;;;7.50;99.90;;;;;;5033806;28;20118;-73
2023/01/26 13:39:33;;;;;;;38.70;6.80;;;7.60;99.90;;;;;;5033734;28;20073;-73
2023/01/26 13:41:59;;;;;;;11.55;2.63;;;7.60;99.90;;;;;;5051061;28;20033;-73